Masuei Maru No32 — JI3612 — position and weather

sailwx.info

Track history (hours):
 
Tides and Currents Weather Stations Pressure Air Temp Water Temp Dewpoint Dewpoint Depression Visibility Wind Speed Wind Dir Waves Ship Positions

Masuei Maru No32

Last reported at 2018-Feb-23 08:28 UTC. Time now 2018-Feb-23 08:58 UTC.
Position N 34°13' E 135°09'.

Length 32 m.

Type: Tug. MMSI: 431301507.

Date/timePositionNaut miles runAvg speedWind from/ knotsBaromVisibWave heightAir tempDewpointWater temp
2018-Feb-23 08:28N 34°13' E 135°09'0 0.0
2018-Feb-23 07:58N 34°13' E 135°09'0 0.0
2018-Feb-23 07:28N 34°13' E 135°09'0 0.0
2018-Feb-23 06:58N 34°13' E 135°09'0 0.0
2018-Feb-23 06:28N 34°13' E 135°09'1 1.1
2018-Feb-23 06:00N 34°13' E 135°08'5 8.3
2018-Feb-23 05:27N 34°09' E 135°07'2 1.0
2018-Feb-23 03:43N 34°07' E 135°06'2 2.0
2018-Feb-23 02:42N 34°09' E 135°06'1 2.2
2018-Feb-23 02:27N 34°09' E 135°06'12 0.5
2018-Feb-21 23:59N 33°57' E 135°05'12 0.3
2018-Feb-20 03:08N 34°09' E 135°04'110.8
2018-Feb-20 03:00N 34°10' E 135°05'5 9.4
2018-Feb-20 02:30N 34°14' E 135°07'1 1.0
2018-Feb-20 01:41N 34°14' E 135°08'0 1.6
2018-Feb-20 01:26N 34°14' E 135°07'1 1.8
2018-Feb-20 01:00N 34°14' E 135°06'0 0.2
2018-Feb-20 00:30N 34°14' E 135°06'1 2.5
2018-Feb-20 00:00N 34°13' E 135°07'2 3.5
2018-Feb-19 23:29N 34°13' E 135°09'0 0.0
2018-Feb-19 22:59N 34°13' E 135°09'0 0.0
2018-Feb-19 22:29N 34°13' E 135°09'0 0.0
2018-Feb-19 21:59N 34°13' E 135°09'0 0.0
2018-Feb-19 21:23N 34°13' E 135°09'0 0.0
2018-Feb-19 20:59N 34°13' E 135°09'0 0.0
2018-Feb-19 20:29N 34°13' E 135°09'0 0.0
2018-Feb-19 19:59N 34°13' E 135°09'0 0.0
2018-Feb-19 19:29N 34°13' E 135°09'0 0.0
2018-Feb-19 18:59N 34°13' E 135°09'0 0.0
2018-Feb-19 18:29N 34°13' E 135°09'0 0.0
2018-Feb-19 17:56N 34°13' E 135°09'0 0.0
2018-Feb-19 17:29N 34°13' E 135°09'0 0.0
2018-Feb-19 16:59N 34°13' E 135°09'0 0.0
2018-Feb-19 16:29N 34°13' E 135°09'0 0.0
2018-Feb-19 15:59N 34°13' E 135°09'0 0.0
2018-Feb-19 15:29N 34°13' E 135°09'0 0.0
2018-Feb-19 14:59N 34°13' E 135°09'0 0.0
2018-Feb-19 14:29N 34°13' E 135°09'0 0.0
2018-Feb-19 13:59N 34°13' E 135°09'0 0.0
2018-Feb-19 13:29N 34°13' E 135°09'0 0.0
2018-Feb-19 12:59N 34°13' E 135°09'0 0.0
2018-Feb-19 12:29N 34°13' E 135°09'0 0.0
2018-Feb-19 12:01N 34°13' E 135°09'1 2.8
2018-Feb-19 11:30N 34°14' E 135°08'0 0.3
2018-Feb-19 10:59N 34°14' E 135°08'1 1.3
2018-Feb-19 10:30N 34°14' E 135°07'1 1.2
2018-Feb-19 09:56N 34°14' E 135°06'1 1.6
2018-Feb-19 09:30N 34°14' E 135°07'1 1.1
2018-Feb-19 08:59N 34°14' E 135°08'1 2.5
2018-Feb-19 08:25N 34°14' E 135°06'3 6.2
2018-Feb-19 07:59N 34°13' E 135°09'0 0.0
2018-Feb-19 07:29N 34°13' E 135°09'0 0.0
2018-Feb-19 06:59N 34°13' E 135°09'0 0.0
2018-Feb-19 06:29N 34°13' E 135°09'0 0.0
2018-Feb-19 05:59N 34°13' E 135°09'0 0.0
2018-Feb-19 05:29N 34°13' E 135°09'0 0.0
2018-Feb-19 04:59N 34°13' E 135°09'0 0.0
2018-Feb-19 04:29N 34°13' E 135°09'0 0.0
2018-Feb-19 03:59N 34°13' E 135°09'0 0.0
2018-Feb-19 03:29N 34°13' E 135°09'0 0.0
2018-Feb-19 02:59N 34°13' E 135°09'0 0.0
2018-Feb-19 02:29N 34°13' E 135°09'0 0.0
2018-Feb-19 01:59N 34°13' E 135°09'0 0.0
2018-Feb-19 01:29N 34°13' E 135°09'0 0.0
2018-Feb-19 00:59N 34°13' E 135°09'0 0.0
2018-Feb-19 00:29N 34°13' E 135°09'0 0.0
2018-Feb-18 23:59N 34°13' E 135°09'0 0.0
2018-Feb-18 23:29N 34°13' E 135°09'0 0.0
2018-Feb-18 22:59N 34°13' E 135°09'0 0.0
2018-Feb-18 22:29N 34°13' E 135°09'0 0.0
2018-Feb-18 21:59N 34°13' E 135°09'0 0.0
2018-Feb-18 21:29N 34°13' E 135°09'0 0.0
2018-Feb-18 20:59N 34°13' E 135°09'0 0.0
2018-Feb-18 20:29N 34°13' E 135°09'0 0.0
2018-Feb-18 19:59N 34°13' E 135°09'0 0.0
2018-Feb-18 19:29N 34°13' E 135°09'0 0.0
2018-Feb-18 18:59N 34°13' E 135°09'0 0.0
2018-Feb-18 18:29N 34°13' E 135°09'0 0.0
2018-Feb-18 17:59N 34°13' E 135°09'0 0.0
2018-Feb-18 17:29N 34°13' E 135°09'0 0.0
2018-Feb-18 16:59N 34°13' E 135°09'0 0.0
2018-Feb-18 16:29N 34°13' E 135°09'0 0.0
2018-Feb-18 15:59N 34°13' E 135°09'0 0.0
2018-Feb-18 15:29N 34°13' E 135°09'0 0.0
2018-Feb-18 14:59N 34°13' E 135°09'0 0.0
2018-Feb-18 14:29N 34°13' E 135°09'0 0.0
2018-Feb-18 13:59N 34°13' E 135°09'0 0.0
2018-Feb-18 13:29N 34°13' E 135°09'0 0.0
2018-Feb-18 12:59N 34°13' E 135°09'0 0.0
2018-Feb-18 12:29N 34°13' E 135°09'0 0.0
2018-Feb-18 11:59N 34°13' E 135°09'0 0.0
2018-Feb-18 11:29N 34°13' E 135°09'0 0.0
2018-Feb-18 10:59N 34°13' E 135°09'0 0.0
2018-Feb-18 10:29N 34°13' E 135°09'0 0.0
2018-Feb-18 09:59N 34°13' E 135°09'0 0.0
2018-Feb-18 09:29N 34°13' E 135°09'0 0.0
2018-Feb-18 08:56N 34°13' E 135°09'0 0.0
2018-Feb-18 08:29N 34°13' E 135°09'0 0.0
2018-Feb-18 07:59N 34°13' E 135°09'0 0.0
2018-Feb-18 07:29N 34°13' E 135°09'0 0.0
2018-Feb-18 06:59N 34°13' E 135°09'0 0.0
2018-Feb-18 06:29N 34°13' E 135°09'0 0.0
2018-Feb-18 05:59N 34°13' E 135°09'0 0.0
2018-Feb-18 05:29N 34°13' E 135°09'0 0.0
2018-Feb-18 04:59N 34°13' E 135°09'0 0.0
2018-Feb-18 04:29N 34°13' E 135°09'0 0.0
2018-Feb-18 03:59N 34°13' E 135°09'0 0.0
2018-Feb-18 03:29N 34°13' E 135°09'0 0.0
2018-Feb-18 02:59N 34°13' E 135°09'0 0.0
2018-Feb-18 02:29N 34°13' E 135°09'0 0.0
2018-Feb-18 01:59N 34°13' E 135°09'0 0.0
2018-Feb-18 01:29N 34°13' E 135°09'0 0.0
2018-Feb-18 00:59N 34°13' E 135°09'0 0.0
2018-Feb-18 00:29N 34°13' E 135°09'0 0.0
2018-Feb-17 23:59N 34°13' E 135°09'0 0.0
2018-Feb-17 23:29N 34°13' E 135°09'0 0.0
2018-Feb-17 22:59N 34°13' E 135°09'0 0.0
2018-Feb-17 22:29N 34°13' E 135°09'0 0.0
2018-Feb-17 21:59N 34°13' E 135°09'0 0.0
2018-Feb-17 21:29N 34°13' E 135°09'0 0.0
2018-Feb-17 20:59N 34°13' E 135°09'0 0.0
2018-Feb-17 20:29N 34°13' E 135°09'0 0.0
2018-Feb-17 19:59N 34°13' E 135°09'0 0.0
2018-Feb-17 19:29N 34°13' E 135°09'0 0.0
2018-Feb-17 18:59N 34°13' E 135°09'0 0.0
2018-Feb-17 18:29N 34°13' E 135°09'0 0.0
2018-Feb-17 17:59N 34°13' E 135°09'0 0.0
2018-Feb-17 17:29N 34°13' E 135°09'0 0.0
2018-Feb-17 16:59N 34°13' E 135°09'0 0.0
2018-Feb-17 16:29N 34°13' E 135°09'0 0.0
2018-Feb-17 15:59N 34°13' E 135°09'0 0.0
2018-Feb-17 15:29N 34°13' E 135°09'0 0.0
2018-Feb-17 14:59N 34°13' E 135°09'0 0.0
2018-Feb-17 14:29N 34°13' E 135°09'0 0.0
2018-Feb-17 13:59N 34°13' E 135°09'0 0.0
2018-Feb-17 13:29N 34°13' E 135°09'0 0.0
2018-Feb-17 12:59N 34°13' E 135°09'0 0.0
2018-Feb-17 12:29N 34°13' E 135°09'0 0.0
2018-Feb-17 11:59N 34°13' E 135°09'0 0.0
2018-Feb-17 11:29N 34°13' E 135°09'0 0.0
2018-Feb-17 10:59N 34°13' E 135°09'0 0.0
2018-Feb-17 10:29N 34°13' E 135°09'0 0.0
2018-Feb-17 09:59N 34°13' E 135°09'0 0.0
2018-Feb-17 09:29N 34°13' E 135°09'0 0.0
2018-Feb-17 08:59N 34°13' E 135°09'0 0.6
2018-Feb-17 08:30N 34°13' E 135°09'4 7.8
2018-Feb-17 08:00N 34°10' E 135°06'5 9.6
2018-Feb-17 07:28N 34°05' E 135°04'8 3.5
2018-Feb-17 05:05N 33°57' E 135°04'0 0.8
2018-Feb-17 04:54N 33°57' E 135°04'11 8.8
2018-Feb-17 03:39N 34°07' E 135°06'211.4
2018-Feb-17 03:30N 34°09' E 135°06'5 9.1
2018-Feb-17 03:00N 34°13' E 135°09'0 0.6
2018-Feb-17 02:30N 34°13' E 135°09'0 0.0
2018-Feb-17 02:00N 34°13' E 135°09'0 0.0
2018-Feb-17 01:30N 34°13' E 135°09'0 0.0
2018-Feb-17 00:54N 34°13' E 135°09'0 0.0
2018-Feb-17 00:30N 34°13' E 135°09'0 0.0
2018-Feb-17 00:00N 34°13' E 135°09'0 0.0
2018-Feb-16 23:30N 34°13' E 135°09'0 0.0
2018-Feb-16 23:00N 34°13' E 135°09'0 0.0
2018-Feb-16 22:30N 34°13' E 135°09'0 0.0
2018-Feb-16 22:00N 34°13' E 135°09'0 0.0
2018-Feb-16 21:30N 34°13' E 135°09'0 0.0
2018-Feb-16 21:00N 34°13' E 135°09'0 0.0
2018-Feb-16 20:30N 34°13' E 135°09'0 0.0
2018-Feb-16 20:00N 34°13' E 135°09'0 0.0
2018-Feb-16 19:30N 34°13' E 135°09'0 0.0
2018-Feb-16 19:00N 34°13' E 135°09'0 0.0
2018-Feb-16 18:30N 34°13' E 135°09'0 0.0
2018-Feb-16 18:00N 34°13' E 135°09'0 0.0
2018-Feb-16 17:30N 34°13' E 135°09'0 0.0
2018-Feb-16 17:00N 34°13' E 135°09'0 0.0
2018-Feb-16 16:24N 34°13' E 135°09'0 0.0
2018-Feb-16 16:00N 34°13' E 135°09'0 0.0
2018-Feb-16 15:30N 34°13' E 135°09'0 0.0
2018-Feb-16 15:00N 34°13' E 135°09'0 0.0
2018-Feb-16 14:30N 34°13' E 135°09'0 0.0
2018-Feb-16 14:00N 34°13' E 135°09'0 0.0
2018-Feb-16 13:30N 34°13' E 135°09'0 0.0
2018-Feb-16 13:00N 34°13' E 135°09'0 0.0
2018-Feb-16 12:30N 34°13' E 135°09'0 0.0
2018-Feb-16 12:00N 34°13' E 135°09'0 0.0
2018-Feb-16 11:30N 34°13' E 135°09'0 0.0
2018-Feb-16 11:00N 34°13' E 135°09'0 0.0
2018-Feb-16 10:30N 34°13' E 135°09'0 0.0
2018-Feb-16 10:00N 34°13' E 135°09'0 0.0
2018-Feb-16 09:30N 34°13' E 135°09'0 0.0
2018-Feb-16 09:00N 34°13' E 135°09'0 0.0
2018-Feb-16 08:30N 34°13' E 135°09'0 0.7
2018-Feb-16 08:00N 34°13' E 135°09'0 0.7
2018-Feb-16 07:26N 34°13' E 135°09'0 0.0
2018-Feb-16 06:59N 34°13' E 135°09'0 0.0
2018-Feb-16 06:29N 34°13' E 135°09'0 0.0
2018-Feb-16 05:59N 34°13' E 135°09'0 0.0
2018-Feb-16 05:29N 34°13' E 135°09'0 0.0
2018-Feb-16 04:59N 34°13' E 135°09'0 0.0
2018-Feb-16 04:29N 34°13' E 135°09'0 0.0
2018-Feb-16 03:59N 34°13' E 135°09'0 0.0
2018-Feb-16 03:29N 34°13' E 135°09'0 0.0
2018-Feb-16 02:56N 34°13' E 135°09'0 0.0
2018-Feb-16 02:29N 34°13' E 135°09'0 0.0
2018-Feb-16 01:59N 34°13' E 135°09'0 0.0
2018-Feb-16 01:29N 34°13' E 135°09'0 0.0
2018-Feb-16 00:59N 34°13' E 135°09'0 0.1
2018-Feb-16 00:29N 34°13' E 135°09'0 0.0
2018-Feb-15 23:59N 34°13' E 135°09'3 6.0
2018-Feb-15 23:30N 34°14' E 135°06'2 3.2
2018-Feb-15 22:59N 34°14' E 135°08'0 0.5
2018-Feb-15 22:31N 34°14' E 135°07'1 1.9
2018-Feb-15 21:55N 34°14' E 135°06'0 0.0
2018-Feb-15 21:31N 34°14' E 135°06'2 3.0
2018-Feb-15 21:00N 34°14' E 135°08'1 2.5
2018-Feb-15 20:30N 34°14' E 135°06'2 4.3
2018-Feb-15 19:58N 34°13' E 135°09'0 0.0
2018-Feb-15 19:28N 34°13' E 135°09'0 0.0
2018-Feb-15 18:58N 34°13' E 135°09'0 0.0
2018-Feb-15 18:28N 34°13' E 135°09'0 0.0
2018-Feb-15 17:58N 34°13' E 135°09'0 0.0
2018-Feb-15 17:28N 34°13' E 135°09'0 0.0
2018-Feb-15 16:58N 34°13' E 135°09'0 0.0
2018-Feb-15 16:28N 34°13' E 135°09'0 0.0
2018-Feb-15 15:58N 34°13' E 135°09'0 0.0
2018-Feb-15 15:28N 34°13' E 135°09'0 0.0
2018-Feb-15 14:58N 34°13' E 135°09'0 0.0
2018-Feb-15 14:28N 34°13' E 135°09'0 0.0
2018-Feb-15 13:58N 34°13' E 135°09'0 0.0
2018-Feb-15 13:28N 34°13' E 135°09'0 0.0
2018-Feb-15 12:58N 34°13' E 135°09'0 0.0
2018-Feb-15 12:28N 34°13' E 135°09'0 0.0
2018-Feb-15 11:58N 34°13' E 135°09'0 0.0
2018-Feb-15 11:28N 34°13' E 135°09'0 0.0
2018-Feb-15 10:58N 34°13' E 135°09'0 0.0
2018-Feb-15 10:28N 34°13' E 135°09'0 0.0
2018-Feb-15 09:58N 34°13' E 135°09'0 0.0
2018-Feb-15 09:28N 34°13' E 135°09'0 0.0
2018-Feb-15 08:58N 34°13' E 135°09'0 0.8
2018-Feb-15 08:30N 34°13' E 135°09'0 0.2
2018-Feb-15 07:59N 34°13' E 135°09'2 4.3
2018-Feb-15 07:30N 34°12' E 135°07'510.1
2018-Feb-15 07:00N 34°07' E 135°05'8 9.9
2018-Feb-15 06:09N 33°58' E 135°04'7 1.7
2018-Feb-15 01:41N 34°06' E 135°05'210.0
2018-Feb-15 01:27N 34°07' E 135°07'0 0.4
2018-Feb-15 00:17N 34°08' E 135°07'2 6.3
2018-Feb-14 23:55N 34°10' E 135°07'3 7.4
2018-Feb-14 23:30N 34°13' E 135°08'1 1.2
2018-Feb-14 22:58N 34°13' E 135°09'1 1.8
2018-Feb-14 22:29N 34°12' E 135°08'1 1.6
2018-Feb-14 21:59N 34°13' E 135°08'1 1.5
2018-Feb-14 21:30N 34°13' E 135°09'1 1.7
2018-Feb-14 21:00N 34°13' E 135°08'1 2.1
2018-Feb-14 20:28N 34°13' E 135°09'0 0.0
2018-Feb-14 19:58N 34°13' E 135°09'0 0.0
2018-Feb-14 19:28N 34°13' E 135°09'0 0.0
2018-Feb-14 18:58N 34°13' E 135°09'0 0.0
2018-Feb-14 18:28N 34°13' E 135°09'0 0.0
2018-Feb-14 17:58N 34°13' E 135°09'0 0.0
2018-Feb-14 17:28N 34°13' E 135°09'0 0.0
2018-Feb-14 16:58N 34°13' E 135°09'0 0.0
2018-Feb-14 16:28N 34°13' E 135°09'0 0.0
2018-Feb-14 15:58N 34°13' E 135°09'0 0.0
2018-Feb-14 15:28N 34°13' E 135°09'0 0.0
2018-Feb-14 14:58N 34°13' E 135°09'0 0.0
2018-Feb-14 14:28N 34°13' E 135°09'0 0.0
2018-Feb-14 13:58N 34°13' E 135°09'0 0.0
2018-Feb-14 13:28N 34°13' E 135°09'0 0.0
2018-Feb-14 12:58N 34°13' E 135°09'0 0.0
2018-Feb-14 12:28N 34°13' E 135°09'0 0.0
2018-Feb-14 11:58N 34°13' E 135°09'0 0.0
2018-Feb-14 11:28N 34°13' E 135°09'0 0.0
2018-Feb-14 10:58N 34°13' E 135°09'0 0.0
2018-Feb-14 10:28N 34°13' E 135°09'0 0.0
2018-Feb-14 09:58N 34°13' E 135°09'0 0.0
2018-Feb-14 09:28N 34°13' E 135°09'0 0.0
2018-Feb-14 08:58N 34°13' E 135°09'0 0.0
2018-Feb-14 08:28N 34°13' E 135°09'0 0.0
2018-Feb-14 07:58N 34°13' E 135°09'0 0.0
2018-Feb-14 07:28N 34°13' E 135°09'0 0.0
2018-Feb-14 06:58N 34°13' E 135°09'0 0.0
2018-Feb-14 06:28N 34°13' E 135°09'0 0.0
2018-Feb-14 05:58N 34°13' E 135°09'0 0.0
2018-Feb-14 05:28N 34°13' E 135°09'0 0.0
2018-Feb-14 04:58N 34°13' E 135°09'0 0.0
2018-Feb-14 04:28N 34°13' E 135°09'0 0.0
2018-Feb-14 03:58N 34°13' E 135°09'0 0.0
2018-Feb-14 03:28N 34°13' E 135°09'0 0.0
2018-Feb-14 02:58N 34°13' E 135°09'0 0.0
2018-Feb-14 02:28N 34°13' E 135°09'0 0.0
2018-Feb-14 01:58N 34°13' E 135°09'0 0.0
2018-Feb-14 01:28N 34°13' E 135°09'0 0.0
2018-Feb-14 00:58N 34°13' E 135°09'0 0.0
2018-Feb-14 00:28N 34°13' E 135°09'0 0.0
2018-Feb-13 23:58N 34°13' E 135°09'0 0.0
2018-Feb-13 23:28N 34°13' E 135°09'0 0.0
2018-Feb-13 22:58N 34°13' E 135°09'0 0.0
2018-Feb-13 22:28N 34°13' E 135°09'0 0.0
2018-Feb-13 21:58N 34°13' E 135°09'0 0.0
2018-Feb-13 21:28N 34°13' E 135°09'0 0.0
2018-Feb-13 20:58N 34°13' E 135°09'0 0.0
2018-Feb-13 20:28N 34°13' E 135°09'0 0.0
2018-Feb-13 19:58N 34°13' E 135°09'0 0.0
2018-Feb-13 19:28N 34°13' E 135°09'0 0.0
2018-Feb-13 18:58N 34°13' E 135°09'0 0.0
2018-Feb-13 18:28N 34°13' E 135°09'0 0.0
2018-Feb-13 17:58N 34°13' E 135°09'0 0.0
2018-Feb-13 17:28N 34°13' E 135°09'0 0.0
2018-Feb-13 16:58N 34°13' E 135°09'0 0.0
2018-Feb-13 16:28N 34°13' E 135°09'0 0.0
2018-Feb-13 15:58N 34°13' E 135°09'0 0.0
2018-Feb-13 15:28N 34°13' E 135°09'0 0.0
2018-Feb-13 14:58N 34°13' E 135°09'0 0.0
2018-Feb-13 14:28N 34°13' E 135°09'0 0.0
2018-Feb-13 13:58N 34°13' E 135°09'0 0.0
2018-Feb-13 13:28N 34°13' E 135°09'0 0.0
2018-Feb-13 12:58N 34°13' E 135°09'0 0.0
2018-Feb-13 12:28N 34°13' E 135°09'0 0.0
2018-Feb-13 11:58N 34°13' E 135°09'0 0.0
2018-Feb-13 11:28N 34°13' E 135°09'0 0.0
2018-Feb-13 10:58N 34°13' E 135°09'0 0.0
2018-Feb-13 10:28N 34°13' E 135°09'0 0.0
2018-Feb-13 09:58N 34°13' E 135°09'0 0.0
2018-Feb-13 09:28N 34°13' E 135°09'0 0.0
2018-Feb-13 08:58N 34°13' E 135°09'0 0.0
2018-Feb-13 08:28N 34°13' E 135°09'  
Track history (hours):
 
Tides and Currents Weather Stations Pressure Air Temp Water Temp Dewpoint Dewpoint Depression Visibility Wind Speed Wind Dir Waves Ship Positions

Masuei Maru No32

Last reported at 2018-Feb-23 08:28 UTC. Time now 2018-Feb-23 08:58 UTC.
Position N 34°13' E 135°09'.

Length 32 m.

Type: Tug. MMSI: 431301507.

Date/timePositionNaut miles runAvg speedWind from/ knotsBaromVisibWave heightAir tempDewpointWater temp
2018-Feb-23 08:28N 34°13' E 135°09'0 0.0
2018-Feb-23 07:58N 34°13' E 135°09'0 0.0
2018-Feb-23 07:28N 34°13' E 135°09'0 0.0
2018-Feb-23 06:58N 34°13' E 135°09'0 0.0
2018-Feb-23 06:28N 34°13' E 135°09'1 1.1
2018-Feb-23 06:00N 34°13' E 135°08'5 8.3
2018-Feb-23 05:27N 34°09' E 135°07'2 1.0
2018-Feb-23 03:43N 34°07' E 135°06'2 2.0
2018-Feb-23 02:42N 34°09' E 135°06'1 2.2
2018-Feb-23 02:27N 34°09' E 135°06'12 0.5
2018-Feb-21 23:59N 33°57' E 135°05'12 0.3
2018-Feb-20 03:08N 34°09' E 135°04'110.8
2018-Feb-20 03:00N 34°10' E 135°05'5 9.4
2018-Feb-20 02:30N 34°14' E 135°07'1 1.0
2018-Feb-20 01:41N 34°14' E 135°08'0 1.6
2018-Feb-20 01:26N 34°14' E 135°07'1 1.8
2018-Feb-20 01:00N 34°14' E 135°06'0 0.2
2018-Feb-20 00:30N 34°14' E 135°06'1 2.5
2018-Feb-20 00:00N 34°13' E 135°07'2 3.5
2018-Feb-19 23:29N 34°13' E 135°09'0 0.0
2018-Feb-19 22:59N 34°13' E 135°09'0 0.0
2018-Feb-19 22:29N 34°13' E 135°09'0 0.0
2018-Feb-19 21:59N 34°13' E 135°09'0 0.0
2018-Feb-19 21:23N 34°13' E 135°09'0 0.0
2018-Feb-19 20:59N 34°13' E 135°09'0 0.0
2018-Feb-19 20:29N 34°13' E 135°09'0 0.0
2018-Feb-19 19:59N 34°13' E 135°09'0 0.0
2018-Feb-19 19:29N 34°13' E 135°09'0 0.0
2018-Feb-19 18:59N 34°13' E 135°09'0 0.0
2018-Feb-19 18:29N 34°13' E 135°09'0 0.0
2018-Feb-19 17:56N 34°13' E 135°09'0 0.0
2018-Feb-19 17:29N 34°13' E 135°09'0 0.0
2018-Feb-19 16:59N 34°13' E 135°09'0 0.0
2018-Feb-19 16:29N 34°13' E 135°09'0 0.0
2018-Feb-19 15:59N 34°13' E 135°09'0 0.0
2018-Feb-19 15:29N 34°13' E 135°09'0 0.0
2018-Feb-19 14:59N 34°13' E 135°09'0 0.0
2018-Feb-19 14:29N 34°13' E 135°09'0 0.0
2018-Feb-19 13:59N 34°13' E 135°09'0 0.0
2018-Feb-19 13:29N 34°13' E 135°09'0 0.0
2018-Feb-19 12:59N 34°13' E 135°09'0 0.0
2018-Feb-19 12:29N 34°13' E 135°09'0 0.0
2018-Feb-19 12:01N 34°13' E 135°09'1 2.8
2018-Feb-19 11:30N 34°14' E 135°08'0 0.3
2018-Feb-19 10:59N 34°14' E 135°08'1 1.3
2018-Feb-19 10:30N 34°14' E 135°07'1 1.2
2018-Feb-19 09:56N 34°14' E 135°06'1 1.6
2018-Feb-19 09:30N 34°14' E 135°07'1 1.1
2018-Feb-19 08:59N 34°14' E 135°08'1 2.5
2018-Feb-19 08:25N 34°14' E 135°06'3 6.2
2018-Feb-19 07:59N 34°13' E 135°09'0 0.0
2018-Feb-19 07:29N 34°13' E 135°09'0 0.0
2018-Feb-19 06:59N 34°13' E 135°09'0 0.0
2018-Feb-19 06:29N 34°13' E 135°09'0 0.0
2018-Feb-19 05:59N 34°13' E 135°09'0 0.0
2018-Feb-19 05:29N 34°13' E 135°09'0 0.0
2018-Feb-19 04:59N 34°13' E 135°09'0 0.0
2018-Feb-19 04:29N 34°13' E 135°09'0 0.0
2018-Feb-19 03:59N 34°13' E 135°09'0 0.0
2018-Feb-19 03:29N 34°13' E 135°09'0 0.0
2018-Feb-19 02:59N 34°13' E 135°09'0 0.0
2018-Feb-19 02:29N 34°13' E 135°09'0 0.0
2018-Feb-19 01:59N 34°13' E 135°09'0 0.0
2018-Feb-19 01:29N 34°13' E 135°09'0 0.0
2018-Feb-19 00:59N 34°13' E 135°09'0 0.0
2018-Feb-19 00:29N 34°13' E 135°09'0 0.0
2018-Feb-18 23:59N 34°13' E 135°09'0 0.0
2018-Feb-18 23:29N 34°13' E 135°09'0 0.0
2018-Feb-18 22:59N 34°13' E 135°09'0 0.0
2018-Feb-18 22:29N 34°13' E 135°09'0 0.0
2018-Feb-18 21:59N 34°13' E 135°09'0 0.0
2018-Feb-18 21:29N 34°13' E 135°09'0 0.0
2018-Feb-18 20:59N 34°13' E 135°09'0 0.0
2018-Feb-18 20:29N 34°13' E 135°09'0 0.0
2018-Feb-18 19:59N 34°13' E 135°09'0 0.0
2018-Feb-18 19:29N 34°13' E 135°09'0 0.0
2018-Feb-18 18:59N 34°13' E 135°09'0 0.0
2018-Feb-18 18:29N 34°13' E 135°09'0 0.0
2018-Feb-18 17:59N 34°13' E 135°09'0 0.0
2018-Feb-18 17:29N 34°13' E 135°09'0 0.0
2018-Feb-18 16:59N 34°13' E 135°09'0 0.0
2018-Feb-18 16:29N 34°13' E 135°09'0 0.0
2018-Feb-18 15:59N 34°13' E 135°09'0 0.0
2018-Feb-18 15:29N 34°13' E 135°09'0 0.0
2018-Feb-18 14:59N 34°13' E 135°09'0 0.0
2018-Feb-18 14:29N 34°13' E 135°09'0 0.0
2018-Feb-18 13:59N 34°13' E 135°09'0 0.0
2018-Feb-18 13:29N 34°13' E 135°09'0 0.0
2018-Feb-18 12:59N 34°13' E 135°09'0 0.0
2018-Feb-18 12:29N 34°13' E 135°09'0 0.0
2018-Feb-18 11:59N 34°13' E 135°09'0 0.0
2018-Feb-18 11:29N 34°13' E 135°09'0 0.0
2018-Feb-18 10:59N 34°13' E 135°09'0 0.0
2018-Feb-18 10:29N 34°13' E 135°09'0 0.0
2018-Feb-18 09:59N 34°13' E 135°09'0 0.0
2018-Feb-18 09:29N 34°13' E 135°09'0 0.0
2018-Feb-18 08:56N 34°13' E 135°09'0 0.0
2018-Feb-18 08:29N 34°13' E 135°09'0 0.0
2018-Feb-18 07:59N 34°13' E 135°09'0 0.0
2018-Feb-18 07:29N 34°13' E 135°09'0 0.0
2018-Feb-18 06:59N 34°13' E 135°09'0 0.0
2018-Feb-18 06:29N 34°13' E 135°09'0 0.0
2018-Feb-18 05:59N 34°13' E 135°09'0 0.0
2018-Feb-18 05:29N 34°13' E 135°09'0 0.0
2018-Feb-18 04:59N 34°13' E 135°09'0 0.0
2018-Feb-18 04:29N 34°13' E 135°09'0 0.0
2018-Feb-18 03:59N 34°13' E 135°09'0 0.0
2018-Feb-18 03:29N 34°13' E 135°09'0 0.0
2018-Feb-18 02:59N 34°13' E 135°09'0 0.0
2018-Feb-18 02:29N 34°13' E 135°09'0 0.0
2018-Feb-18 01:59N 34°13' E 135°09'0 0.0
2018-Feb-18 01:29N 34°13' E 135°09'0 0.0
2018-Feb-18 00:59N 34°13' E 135°09'0 0.0
2018-Feb-18 00:29N 34°13' E 135°09'0 0.0
2018-Feb-17 23:59N 34°13' E 135°09'0 0.0
2018-Feb-17 23:29N 34°13' E 135°09'0 0.0
2018-Feb-17 22:59N 34°13' E 135°09'0 0.0
2018-Feb-17 22:29N 34°13' E 135°09'0 0.0
2018-Feb-17 21:59N 34°13' E 135°09'0 0.0
2018-Feb-17 21:29N 34°13' E 135°09'0 0.0
2018-Feb-17 20:59N 34°13' E 135°09'0 0.0
2018-Feb-17 20:29N 34°13' E 135°09'0 0.0
2018-Feb-17 19:59N 34°13' E 135°09'0 0.0
2018-Feb-17 19:29N 34°13' E 135°09'0 0.0
2018-Feb-17 18:59N 34°13' E 135°09'0 0.0
2018-Feb-17 18:29N 34°13' E 135°09'0 0.0
2018-Feb-17 17:59N 34°13' E 135°09'0 0.0
2018-Feb-17 17:29N 34°13' E 135°09'0 0.0
2018-Feb-17 16:59N 34°13' E 135°09'0 0.0
2018-Feb-17 16:29N 34°13' E 135°09'0 0.0
2018-Feb-17 15:59N 34°13' E 135°09'0 0.0
2018-Feb-17 15:29N 34°13' E 135°09'0 0.0
2018-Feb-17 14:59N 34°13' E 135°09'0 0.0
2018-Feb-17 14:29N 34°13' E 135°09'0 0.0
2018-Feb-17 13:59N 34°13' E 135°09'0 0.0
2018-Feb-17 13:29N 34°13' E 135°09'0 0.0
2018-Feb-17 12:59N 34°13' E 135°09'0 0.0
2018-Feb-17 12:29N 34°13' E 135°09'0 0.0
2018-Feb-17 11:59N 34°13' E 135°09'0 0.0
2018-Feb-17 11:29N 34°13' E 135°09'0 0.0
2018-Feb-17 10:59N 34°13' E 135°09'0 0.0
2018-Feb-17 10:29N 34°13' E 135°09'0 0.0
2018-Feb-17 09:59N 34°13' E 135°09'0 0.0
2018-Feb-17 09:29N 34°13' E 135°09'0 0.0
2018-Feb-17 08:59N 34°13' E 135°09'0 0.6
2018-Feb-17 08:30N 34°13' E 135°09'4 7.8
2018-Feb-17 08:00N 34°10' E 135°06'5 9.6
2018-Feb-17 07:28N 34°05' E 135°04'8 3.5
2018-Feb-17 05:05N 33°57' E 135°04'0 0.8
2018-Feb-17 04:54N 33°57' E 135°04'11 8.8
2018-Feb-17 03:39N 34°07' E 135°06'211.4
2018-Feb-17 03:30N 34°09' E 135°06'5 9.1
2018-Feb-17 03:00N 34°13' E 135°09'0 0.6
2018-Feb-17 02:30N 34°13' E 135°09'0 0.0
2018-Feb-17 02:00N 34°13' E 135°09'0 0.0
2018-Feb-17 01:30N 34°13' E 135°09'0 0.0
2018-Feb-17 00:54N 34°13' E 135°09'0 0.0
2018-Feb-17 00:30N 34°13' E 135°09'0 0.0
2018-Feb-17 00:00N 34°13' E 135°09'0 0.0
2018-Feb-16 23:30N 34°13' E 135°09'0 0.0
2018-Feb-16 23:00N 34°13' E 135°09'0 0.0
2018-Feb-16 22:30N 34°13' E 135°09'0 0.0
2018-Feb-16 22:00N 34°13' E 135°09'0 0.0
2018-Feb-16 21:30N 34°13' E 135°09'0 0.0
2018-Feb-16 21:00N 34°13' E 135°09'0 0.0
2018-Feb-16 20:30N 34°13' E 135°09'0 0.0
2018-Feb-16 20:00N 34°13' E 135°09'0 0.0
2018-Feb-16 19:30N 34°13' E 135°09'0 0.0
2018-Feb-16 19:00N 34°13' E 135°09'0 0.0
2018-Feb-16 18:30N 34°13' E 135°09'0 0.0
2018-Feb-16 18:00N 34°13' E 135°09'0 0.0
2018-Feb-16 17:30N 34°13' E 135°09'0 0.0
2018-Feb-16 17:00N 34°13' E 135°09'0 0.0
2018-Feb-16 16:24N 34°13' E 135°09'0 0.0
2018-Feb-16 16:00N 34°13' E 135°09'0 0.0
2018-Feb-16 15:30N 34°13' E 135°09'0 0.0
2018-Feb-16 15:00N 34°13' E 135°09'0 0.0
2018-Feb-16 14:30N 34°13' E 135°09'0 0.0
2018-Feb-16 14:00N 34°13' E 135°09'0 0.0
2018-Feb-16 13:30N 34°13' E 135°09'0 0.0
2018-Feb-16 13:00N 34°13' E 135°09'0 0.0
2018-Feb-16 12:30N 34°13' E 135°09'0 0.0
2018-Feb-16 12:00N 34°13' E 135°09'0 0.0
2018-Feb-16 11:30N 34°13' E 135°09'0 0.0
2018-Feb-16 11:00N 34°13' E 135°09'0 0.0
2018-Feb-16 10:30N 34°13' E 135°09'0 0.0
2018-Feb-16 10:00N 34°13' E 135°09'0 0.0
2018-Feb-16 09:30N 34°13' E 135°09'0 0.0
2018-Feb-16 09:00N 34°13' E 135°09'0 0.0
2018-Feb-16 08:30N 34°13' E 135°09'0 0.7
2018-Feb-16 08:00N 34°13' E 135°09'0 0.7
2018-Feb-16 07:26N 34°13' E 135°09'0 0.0
2018-Feb-16 06:59N 34°13' E 135°09'0 0.0
2018-Feb-16 06:29N 34°13' E 135°09'0 0.0
2018-Feb-16 05:59N 34°13' E 135°09'0 0.0
2018-Feb-16 05:29N 34°13' E 135°09'0 0.0
2018-Feb-16 04:59N 34°13' E 135°09'0 0.0
2018-Feb-16 04:29N 34°13' E 135°09'0 0.0
2018-Feb-16 03:59N 34°13' E 135°09'0 0.0
2018-Feb-16 03:29N 34°13' E 135°09'0 0.0
2018-Feb-16 02:56N 34°13' E 135°09'0 0.0
2018-Feb-16 02:29N 34°13' E 135°09'0 0.0
2018-Feb-16 01:59N 34°13' E 135°09'0 0.0
2018-Feb-16 01:29N 34°13' E 135°09'0 0.0
2018-Feb-16 00:59N 34°13' E 135°09'0 0.1
2018-Feb-16 00:29N 34°13' E 135°09'0 0.0
2018-Feb-15 23:59N 34°13' E 135°09'3 6.0
2018-Feb-15 23:30N 34°14' E 135°06'2 3.2
2018-Feb-15 22:59N 34°14' E 135°08'0 0.5
2018-Feb-15 22:31N 34°14' E 135°07'1 1.9
2018-Feb-15 21:55N 34°14' E 135°06'0 0.0
2018-Feb-15 21:31N 34°14' E 135°06'2 3.0
2018-Feb-15 21:00N 34°14' E 135°08'1 2.5
2018-Feb-15 20:30N 34°14' E 135°06'2 4.3
2018-Feb-15 19:58N 34°13' E 135°09'0 0.0
2018-Feb-15 19:28N 34°13' E 135°09'0 0.0
2018-Feb-15 18:58N 34°13' E 135°09'0 0.0
2018-Feb-15 18:28N 34°13' E 135°09'0 0.0
2018-Feb-15 17:58N 34°13' E 135°09'0 0.0
2018-Feb-15 17:28N 34°13' E 135°09'0 0.0
2018-Feb-15 16:58N 34°13' E 135°09'0 0.0
2018-Feb-15 16:28N 34°13' E 135°09'0 0.0
2018-Feb-15 15:58N 34°13' E 135°09'0 0.0
2018-Feb-15 15:28N 34°13' E 135°09'0 0.0
2018-Feb-15 14:58N 34°13' E 135°09'0 0.0
2018-Feb-15 14:28N 34°13' E 135°09'0 0.0
2018-Feb-15 13:58N 34°13' E 135°09'0 0.0
2018-Feb-15 13:28N 34°13' E 135°09'0 0.0
2018-Feb-15 12:58N 34°13' E 135°09'0 0.0
2018-Feb-15 12:28N 34°13' E 135°09'0 0.0
2018-Feb-15 11:58N 34°13' E 135°09'0 0.0
2018-Feb-15 11:28N 34°13' E 135°09'0 0.0
2018-Feb-15 10:58N 34°13' E 135°09'0 0.0
2018-Feb-15 10:28N 34°13' E 135°09'0 0.0
2018-Feb-15 09:58N 34°13' E 135°09'0 0.0
2018-Feb-15 09:28N 34°13' E 135°09'0 0.0
2018-Feb-15 08:58N 34°13' E 135°09'0 0.8
2018-Feb-15 08:30N 34°13' E 135°09'0 0.2
2018-Feb-15 07:59N 34°13' E 135°09'2 4.3
2018-Feb-15 07:30N 34°12' E 135°07'510.1
2018-Feb-15 07:00N 34°07' E 135°05'8 9.9
2018-Feb-15 06:09N 33°58' E 135°04'7 1.7
2018-Feb-15 01:41N 34°06' E 135°05'210.0
2018-Feb-15 01:27N 34°07' E 135°07'0 0.4
2018-Feb-15 00:17N 34°08' E 135°07'2 6.3
2018-Feb-14 23:55N 34°10' E 135°07'3 7.4
2018-Feb-14 23:30N 34°13' E 135°08'1 1.2
2018-Feb-14 22:58N 34°13' E 135°09'1 1.8
2018-Feb-14 22:29N 34°12' E 135°08'1 1.6
2018-Feb-14 21:59N 34°13' E 135°08'1 1.5
2018-Feb-14 21:30N 34°13' E 135°09'1 1.7
2018-Feb-14 21:00N 34°13' E 135°08'1 2.1
2018-Feb-14 20:28N 34°13' E 135°09'0 0.0
2018-Feb-14 19:58N 34°13' E 135°09'0 0.0
2018-Feb-14 19:28N 34°13' E 135°09'0 0.0
2018-Feb-14 18:58N 34°13' E 135°09'0 0.0
2018-Feb-14 18:28N 34°13' E 135°09'0 0.0
2018-Feb-14 17:58N 34°13' E 135°09'0 0.0
2018-Feb-14 17:28N 34°13' E 135°09'0 0.0
2018-Feb-14 16:58N 34°13' E 135°09'0 0.0
2018-Feb-14 16:28N 34°13' E 135°09'0 0.0
2018-Feb-14 15:58N 34°13' E 135°09'0 0.0
2018-Feb-14 15:28N 34°13' E 135°09'0 0.0
2018-Feb-14 14:58N 34°13' E 135°09'0 0.0
2018-Feb-14 14:28N 34°13' E 135°09'0 0.0
2018-Feb-14 13:58N 34°13' E 135°09'0 0.0
2018-Feb-14 13:28N 34°13' E 135°09'0 0.0
2018-Feb-14 12:58N 34°13' E 135°09'0 0.0
2018-Feb-14 12:28N 34°13' E 135°09'0 0.0
2018-Feb-14 11:58N 34°13' E 135°09'0 0.0
2018-Feb-14 11:28N 34°13' E 135°09'0 0.0
2018-Feb-14 10:58N 34°13' E 135°09'0 0.0
2018-Feb-14 10:28N 34°13' E 135°09'0 0.0
2018-Feb-14 09:58N 34°13' E 135°09'0 0.0
2018-Feb-14 09:28N 34°13' E 135°09'0 0.0
2018-Feb-14 08:58N 34°13' E 135°09'0 0.0
2018-Feb-14 08:28N 34°13' E 135°09'0 0.0
2018-Feb-14 07:58N 34°13' E 135°09'0 0.0
2018-Feb-14 07:28N 34°13' E 135°09'0 0.0
2018-Feb-14 06:58N 34°13' E 135°09'0 0.0
2018-Feb-14 06:28N 34°13' E 135°09'0 0.0
2018-Feb-14 05:58N 34°13' E 135°09'0 0.0
2018-Feb-14 05:28N 34°13' E 135°09'0 0.0
2018-Feb-14 04:58N 34°13' E 135°09'0 0.0
2018-Feb-14 04:28N 34°13' E 135°09'0 0.0
2018-Feb-14 03:58N 34°13' E 135°09'0 0.0
2018-Feb-14 03:28N 34°13' E 135°09'0 0.0
2018-Feb-14 02:58N 34°13' E 135°09'0 0.0
2018-Feb-14 02:28N 34°13' E 135°09'0 0.0
2018-Feb-14 01:58N 34°13' E 135°09'0 0.0
2018-Feb-14 01:28N 34°13' E 135°09'0 0.0
2018-Feb-14 00:58N 34°13' E 135°09'0 0.0
2018-Feb-14 00:28N 34°13' E 135°09'0 0.0
2018-Feb-13 23:58N 34°13' E 135°09'0 0.0
2018-Feb-13 23:28N 34°13' E 135°09'0 0.0
2018-Feb-13 22:58N 34°13' E 135°09'0 0.0
2018-Feb-13 22:28N 34°13' E 135°09'0 0.0
2018-Feb-13 21:58N 34°13' E 135°09'0 0.0
2018-Feb-13 21:28N 34°13' E 135°09'0 0.0
2018-Feb-13 20:58N 34°13' E 135°09'0 0.0
2018-Feb-13 20:28N 34°13' E 135°09'0 0.0
2018-Feb-13 19:58N 34°13' E 135°09'0 0.0
2018-Feb-13 19:28N 34°13' E 135°09'0 0.0
2018-Feb-13 18:58N 34°13' E 135°09'0 0.0
2018-Feb-13 18:28N 34°13' E 135°09'0 0.0
2018-Feb-13 17:58N 34°13' E 135°09'0 0.0
2018-Feb-13 17:28N 34°13' E 135°09'0 0.0
2018-Feb-13 16:58N 34°13' E 135°09'0 0.0
2018-Feb-13 16:28N 34°13' E 135°09'0 0.0
2018-Feb-13 15:58N 34°13' E 135°09'0 0.0
2018-Feb-13 15:28N 34°13' E 135°09'0 0.0
2018-Feb-13 14:58N 34°13' E 135°09'0 0.0
2018-Feb-13 14:28N 34°13' E 135°09'0 0.0
2018-Feb-13 13:58N 34°13' E 135°09'0 0.0
2018-Feb-13 13:28N 34°13' E 135°09'0 0.0
2018-Feb-13 12:58N 34°13' E 135°09'0 0.0
2018-Feb-13 12:28N 34°13' E 135°09'0 0.0
2018-Feb-13 11:58N 34°13' E 135°09'0 0.0
2018-Feb-13 11:28N 34°13' E 135°09'0 0.0
2018-Feb-13 10:58N 34°13' E 135°09'0 0.0
2018-Feb-13 10:28N 34°13' E 135°09'0 0.0
2018-Feb-13 09:58N 34°13' E 135°09'0 0.0
2018-Feb-13 09:28N 34°13' E 135°09'0 0.0
2018-Feb-13 08:58N 34°13' E 135°09'0 0.0
2018-Feb-13 08:28N 34°13' E 135°09'  

Dump ship's entire track history